Time;durP1;ratioP1;P1;durP2;ratioP2;P2;SDS_P1;SDS_P2;PMS_P1;PMS_P2;Temp;Humidity;BMP_temperature;BMP_pressure;BME280_temperature;BME280_humidity;BME280_pressure;Samples;Min_cycle;Max_cycle;Signal;HPM_P1;HPM_P2
2022/01/29 00:02:29;;;;;;;4.53;3.00;;;6.10;99.90;;;;;;5053802;28;20219;-79
2022/01/29 00:04:57;;;;;;;9.60;3.83;;;6.20;99.90;;;;;;5047713;28;20510;-79
2022/01/29 00:07:25;;;;;;;10.30;4.18;;;6.50;99.90;;;;;;5047817;28;20474;-80
2022/01/29 00:10:01;;;;;;;6.60;4.25;;;6.20;99.90;;;;;;5058277;28;20614;-79
2022/01/29 00:12:29;;;;;;;6.57;3.10;;;6.10;99.90;;;;;;5048272;28;20643;-79
2022/01/29 00:14:58;;;;;;;5.43;3.28;;;5.90;99.90;;;;;;5052693;28;20551;-79
2022/01/29 00:17:26;;;;;;;8.50;3.45;;;6.00;99.90;;;;;;5047488;28;20220;-78
2022/01/29 00:19:56;;;;;;;4.93;3.50;;;5.90;99.90;;;;;;5056014;28;20468;-78
2022/01/29 00:22:25;;;;;;;3.10;2.80;;;5.70;99.90;;;;;;5048903;28;20473;-79
2022/01/29 00:24:56;;;;;;;4.68;3.15;;;5.70;99.90;;;;;;5050463;28;20533;-79
2022/01/29 00:27:26;;;;;;;6.80;3.65;;;5.90;99.90;;;;;;5047937;28;20248;-79
2022/01/29 00:29:55;;;;;;;3.88;3.38;;;5.90;99.90;;;;;;5050444;28;20266;-79
2022/01/29 00:32:24;;;;;;;5.15;3.47;;;6.00;99.90;;;;;;5051107;28;20664;-79
2022/01/29 00:34:53;;;;;;;4.95;3.38;;;6.10;99.90;;;;;;5051432;28;20281;-79
2022/01/29 00:37:23;;;;;;;8.37;3.70;;;6.00;99.90;;;;;;5049298;28;20747;-79
2022/01/29 00:39:51;;;;;;;4.30;2.75;;;6.00;99.90;;;;;;5040557;28;20461;-78
2022/01/29 00:42:20;;;;;;;4.28;2.95;;;5.70;99.90;;;;;;5060437;28;20204;-78
2022/01/29 00:44:48;;;;;;;5.22;3.30;;;5.80;99.90;;;;;;5049468;28;20251;-77
2022/01/29 00:47:17;;;;;;;4.40;3.28;;;5.90;99.90;;;;;;5063570;28;20217;-79
2022/01/29 00:49:46;;;;;;;7.55;3.65;;;5.90;99.90;;;;;;5049779;28;20544;-78
2022/01/29 00:52:14;;;;;;;3.43;3.03;;;5.90;99.90;;;;;;5045418;28;20267;-78
2022/01/29 00:54:45;;;;;;;6.47;3.47;;;5.90;99.90;;;;;;5052500;28;20451;-79
2022/01/29 00:57:13;;;;;;;4.25;2.85;;;5.80;99.90;;;;;;5042541;28;20332;-80
2022/01/29 00:59:42;;;;;;;4.20;3.25;;;5.60;99.90;;;;;;5055613;28;20387;-79
2022/01/29 01:02:11;;;;;;;3.80;2.90;;;5.50;99.90;;;;;;5052668;28;20201;-79
2022/01/29 01:04:39;;;;;;;4.03;2.85;;;5.60;99.90;;;;;;5051471;28;20470;-78
2022/01/29 01:07:10;;;;;;;4.65;3.13;;;5.60;99.90;;;;;;5044828;28;20233;-79
2022/01/29 01:09:39;;;;;;;4.78;3.08;;;5.50;99.90;;;;;;5052269;28;20282;-79
2022/01/29 01:12:09;;;;;;;3.75;3.17;;;5.30;99.90;;;;;;5047184;28;20222;-79
2022/01/29 01:14:38;;;;;;;2.65;1.98;;;5.30;99.90;;;;;;5049286;28;20219;-79
2022/01/29 01:17:07;;;;;;;3.60;2.78;;;5.40;99.90;;;;;;5039472;28;20217;-79
2022/01/29 01:19:35;;;;;;;2.67;2.47;;;5.50;99.90;;;;;;5040790;28;20203;-79
2022/01/29 01:22:04;;;;;;;3.88;3.25;;;5.60;99.90;;;;;;5048717;28;20973;-78
2022/01/29 01:24:33;;;;;;;4.05;2.35;;;5.60;99.90;;;;;;5048929;28;20284;-79
2022/01/29 01:27:01;;;;;;;4.22;2.28;;;5.60;99.90;;;;;;5042089;28;20224;-79
2022/01/29 01:29:31;;;;;;;3.20;2.58;;;5.40;99.90;;;;;;5039403;28;20526;-77
2022/01/29 01:31:59;;;;;;;2.00;1.80;;;5.30;99.90;;;;;;5047611;28;20698;-79
2022/01/29 01:34:32;;;;;;;4.63;3.38;;;5.50;99.90;;;;;;5045648;28;20225;-78
2022/01/29 01:37:06;;;;;;;4.75;2.75;;;5.30;99.90;;;;;;5046122;28;20224;-78
2022/01/29 01:39:37;;;;;;;2.40;2.20;;;5.40;99.90;;;;;;5044463;28;20185;-79
2022/01/29 01:42:07;;;;;;;4.45;2.75;;;5.50;99.90;;;;;;5028560;28;20228;-79
2022/01/29 01:44:40;;;;;;;6.57;2.50;;;5.60;99.90;;;;;;5042619;28;20185;-79
2022/01/29 01:47:08;;;;;;;2.58;2.00;;;5.70;99.90;;;;;;5047494;28;20331;-78
2022/01/29 01:49:37;;;;;;;2.17;1.90;;;5.80;99.90;;;;;;5045296;28;20197;-78
2022/01/29 01:52:08;;;;;;;3.80;3.45;;;5.80;99.90;;;;;;5037604;28;20683;-78
2022/01/29 01:54:37;;;;;;;2.92;2.53;;;5.90;99.90;;;;;;5037685;28;20213;-78
2022/01/29 01:57:06;;;;;;;3.00;2.50;;;5.90;99.90;;;;;;5035059;28;20656;-77
2022/01/29 01:59:35;;;;;;;5.03;3.33;;;6.00;99.90;;;;;;5039425;28;20225;-78
2022/01/29 02:02:04;;;;;;;4.95;2.55;;;6.00;99.90;;;;;;5041333;28;20475;-79
2022/01/29 02:04:33;;;;;;;4.38;2.38;;;6.00;99.90;;;;;;5042022;28;20197;-78
2022/01/29 02:07:02;;;;;;;4.15;2.63;;;6.00;99.90;;;;;;5056245;28;20232;-77
2022/01/29 02:09:32;;;;;;;3.47;2.55;;;6.00;99.90;;;;;;5040627;28;20200;-79
2022/01/29 02:12:03;;;;;;;3.40;3.10;;;6.10;99.90;;;;;;5036882;28;20201;-78
2022/01/29 02:14:33;;;;;;;2.90;2.40;;;6.20;99.90;;;;;;5040088;28;20629;-78
2022/01/29 02:17:04;;;;;;;2.88;2.22;;;6.20;99.90;;;;;;5042687;28;20525;-78
2022/01/29 02:19:34;;;;;;;6.45;2.80;;;6.20;99.90;;;;;;5039681;28;20280;-77
2022/01/29 02:22:04;;;;;;;4.32;2.88;;;6.20;99.90;;;;;;5039362;28;20282;-78
2022/01/29 02:24:33;;;;;;;2.78;2.40;;;6.20;99.90;;;;;;5051419;28;20207;-79
2022/01/29 02:27:01;;;;;;;3.17;2.90;;;6.20;99.90;;;;;;5047199;28;20213;-78
2022/01/29 02:29:32;;;;;;;3.50;2.50;;;6.20;99.90;;;;;;5044639;28;22057;-79
2022/01/29 02:32:00;;;;;;;4.07;1.80;;;6.20;99.90;;;;;;5040189;28;20209;-78
2022/01/29 02:34:31;;;;;;;3.38;3.08;;;6.20;99.90;;;;;;5048452;28;20197;-78
2022/01/29 02:37:00;;;;;;;6.07;2.45;;;6.10;99.90;;;;;;5037057;28;20221;-79
2022/01/29 02:39:30;;;;;;;2.78;2.08;;;6.20;99.90;;;;;;5036769;28;20201;-78
2022/01/29 02:41:59;;;;;;;4.13;1.90;;;6.20;99.90;;;;;;5047343;28;20199;-78
2022/01/29 02:44:27;;;;;;;2.20;1.95;;;6.30;99.90;;;;;;5040522;28;20201;-78
2022/01/29 02:47:03;;;;;;;3.47;2.33;;;6.20;99.90;;;;;;5041321;28;20221;-78
2022/01/29 02:49:31;;;;;;;2.13;1.77;;;6.30;99.90;;;;;;5037837;28;21215;-78
2022/01/29 02:51:59;;;;;;;2.47;1.60;;;6.30;99.90;;;;;;5041743;28;20502;-78
2022/01/29 02:54:30;;;;;;;2.75;1.95;;;6.30;99.90;;;;;;5038155;28;20285;-77
2022/01/29 02:56:58;;;;;;;2.63;2.38;;;6.20;99.90;;;;;;5040122;28;20225;-78
2022/01/29 02:59:26;;;;;;;4.43;1.85;;;6.50;99.90;;;;;;5034223;28;20247;-77
2022/01/29 03:01:54;;;;;;;2.50;1.40;;;6.10;99.90;;;;;;5038345;28;20940;-78
2022/01/29 03:04:22;;;;;;;1.73;1.40;;;6.00;99.90;;;;;;5041736;28;20197;-78
2022/01/29 03:06:50;;;;;;;3.37;2.03;;;6.00;99.90;;;;;;5051020;28;20490;-78
2022/01/29 03:09:18;;;;;;;5.77;1.90;;;6.00;99.90;;;;;;5039753;28;20812;-79
2022/01/29 03:11:48;;;;;;;2.38;2.10;;;5.80;99.90;;;;;;5036516;28;20479;-78
2022/01/29 03:14:16;;;;;;;1.98;1.77;;;6.20;99.90;;;;;;5045308;28;20201;-79
2022/01/29 03:16:44;;;;;;;2.20;1.70;;;6.00;99.90;;;;;;5042413;28;20228;-79
2022/01/29 03:19:12;;;;;;;3.75;2.10;;;5.90;99.90;;;;;;5044071;28;20552;-79
2022/01/29 03:21:40;;;;;;;2.33;1.85;;;5.60;99.90;;;;;;5039720;28;20260;-78
2022/01/29 03:24:09;;;;;;;4.53;1.63;;;5.70;99.90;;;;;;5041501;28;20202;-78
2022/01/29 03:26:37;;;;;;;1.95;1.40;;;5.60;99.90;;;;;;5045665;28;20212;-79
2022/01/29 03:29:07;;;;;;;1.40;1.30;;;5.60;99.90;;;;;;5048001;28;20193;-78
2022/01/29 03:31:37;;;;;;;2.80;1.53;;;5.40;99.90;;;;;;5041493;28;20196;-78
2022/01/29 03:34:05;;;;;;;2.70;1.50;;;5.30;99.90;;;;;;5046566;28;20525;-78
2022/01/29 03:36:34;;;;;;;2.08;1.45;;;5.00;99.90;;;;;;5040621;28;20245;-77
2022/01/29 03:39:03;;;;;;;2.67;1.90;;;5.00;99.90;;;;;;5045643;28;20209;-77
2022/01/29 03:41:31;;;;;;;4.60;2.35;;;5.20;99.90;;;;;;5051896;28;20200;-78
2022/01/29 03:44:04;;;;;;;2.05;1.48;;;5.20;99.90;;;;;;5049076;28;20201;-78
2022/01/29 03:46:34;;;;;;;2.65;1.85;;;5.30;99.90;;;;;;5041710;28;20222;-79
2022/01/29 03:49:02;;;;;;;4.85;1.55;;;5.30;99.90;;;;;;5046701;28;20201;-79
2022/01/29 03:51:31;;;;;;;2.33;1.60;;;5.30;99.90;;;;;;5039835;28;20199;-79
2022/01/29 03:53:59;;;;;;;2.95;1.83;;;5.20;99.90;;;;;;5043030;28;20236;-78
2022/01/29 03:56:27;;;;;;;4.78;2.05;;;5.20;99.90;;;;;;5047767;28;20719;-78
2022/01/29 03:58:55;;;;;;;9.20;1.95;;;5.30;99.90;;;;;;5046881;28;20546;-78
2022/01/29 04:01:23;;;;;;;3.90;1.60;;;5.60;99.90;;;;;;5042094;28;20205;-79
2022/01/29 04:03:53;;;;;;;1.52;1.35;;;5.70;99.90;;;;;;5044498;28;20638;-78
2022/01/29 04:06:21;;;;;;;1.50;1.40;;;5.80;99.90;;;;;;5042571;28;20196;-78
2022/01/29 04:08:49;;;;;;;1.63;1.52;;;5.80;99.90;;;;;;5041185;28;20197;-78
2022/01/29 04:11:18;;;;;;;2.08;1.15;;;5.90;99.90;;;;;;5039689;28;20211;-78
2022/01/29 04:13:48;;;;;;;1.83;1.20;;;5.80;99.90;;;;;;5044681;28;20197;-77
2022/01/29 04:16:18;;;;;;;2.00;1.50;;;5.90;99.90;;;;;;5046300;28;20483;-79
2022/01/29 04:18:46;;;;;;;2.35;1.40;;;5.90;99.90;;;;;;5044746;28;20453;-78
2022/01/29 04:21:16;;;;;;;1.90;1.55;;;6.00;99.90;;;;;;5041143;28;20204;-78
2022/01/29 04:23:44;;;;;;;1.60;1.50;;;5.90;99.90;;;;;;5043503;28;21445;-78
2022/01/29 04:26:12;;;;;;;1.60;1.33;;;5.90;99.90;;;;;;5046828;28;20193;-78
2022/01/29 04:28:43;;;;;;;1.80;1.70;;;5.90;99.90;;;;;;5044142;28;20194;-79
2022/01/29 04:31:15;;;;;;;2.08;1.30;;;5.90;99.90;;;;;;5045582;28;20451;-78
2022/01/29 04:33:44;;;;;;;2.35;1.80;;;5.80;99.90;;;;;;5046645;28;20357;-79
2022/01/29 04:36:13;;;;;;;1.52;1.42;;;5.70;99.90;;;;;;5051732;28;20675;-77
2022/01/29 04:38:42;;;;;;;1.70;1.60;;;5.70;99.90;;;;;;5040824;28;20193;-78
2022/01/29 04:41:10;;;;;;;2.77;1.37;;;5.60;99.90;;;;;;5043670;28;20202;-80
2022/01/29 04:43:38;;;;;;;3.50;1.30;;;5.60;99.90;;;;;;5040401;28;20478;-78
2022/01/29 04:46:09;;;;;;;1.20;1.10;;;5.60;99.90;;;;;;5045750;28;20944;-78
2022/01/29 04:48:37;;;;;;;1.75;1.50;;;5.50;99.90;;;;;;5043815;28;21364;-78
2022/01/29 04:51:05;;;;;;;1.77;1.67;;;5.30;99.90;;;;;;5046759;28;20663;-78
2022/01/29 04:53:34;;;;;;;1.30;1.10;;;5.20;99.90;;;;;;5045151;28;20454;-78
2022/01/29 04:56:03;;;;;;;2.20;1.90;;;5.40;99.90;;;;;;5045402;28;20464;-78
2022/01/29 04:58:32;;;;;;;1.40;1.30;;;5.40;99.90;;;;;;5049769;28;20985;-78
2022/01/29 05:01:00;;;;;;;1.70;1.60;;;5.50;99.90;;;;;;5041053;28;20970;-78
2022/01/29 05:03:29;;;;;;;1.50;1.40;;;5.30;99.90;;;;;;5040175;28;20216;-78
2022/01/29 05:05:57;;;;;;;1.55;1.20;;;5.20;99.90;;;;;;5041891;28;20969;-78
2022/01/29 05:08:26;;;;;;;2.00;1.08;;;5.10;99.90;;;;;;5039293;28;20670;-77
2022/01/29 05:10:54;;;;;;;1.75;1.35;;;5.10;99.90;;;;;;5045616;28;20217;-78
2022/01/29 05:13:27;;;;;;;1.20;1.10;;;5.00;99.90;;;;;;5039041;28;20198;-77
2022/01/29 05:16:13;;;;;;;1.50;1.25;;;5.10;99.90;;;;;;5041288;28;20775;-78
2022/01/29 05:27:01;;;;;;;1.50;1.40;;;5.70;99.90;;;;;;5043569;28;20985;-77
2022/01/29 05:29:32;;;;;;;1.63;1.23;;;5.80;99.90;;;;;;5036978;28;20538;-78
2022/01/29 05:32:00;;;;;;;1.83;1.00;;;5.90;99.90;;;;;;5037216;28;20454;-77
2022/01/29 05:34:28;;;;;;;1.80;1.20;;;5.90;99.90;;;;;;5037977;28;20462;-77
2022/01/29 05:36:57;;;;;;;1.63;1.30;;;5.90;99.90;;;;;;5041830;28;21092;-78
2022/01/29 05:39:25;;;;;;;1.70;1.20;;;6.00;99.90;;;;;;5039885;28;20508;-77
2022/01/29 05:41:54;;;;;;;3.33;1.60;;;6.00;99.90;;;;;;5045780;28;20468;-78
2022/01/29 05:44:22;;;;;;;1.20;1.10;;;6.10;99.90;;;;;;5035891;28;20991;-77
2022/01/29 05:46:52;;;;;;;2.10;1.40;;;6.30;99.90;;;;;;5039088;28;20901;-77
2022/01/29 05:49:20;;;;;;;1.30;1.20;;;6.20;99.90;;;;;;5034019;28;20498;-78
2022/01/29 05:51:49;;;;;;;3.30;1.53;;;6.20;99.90;;;;;;5044640;28;20455;-78
2022/01/29 05:54:18;;;;;;;1.37;1.27;;;6.10;99.90;;;;;;5042736;28;20448;-77
2022/01/29 05:56:47;;;;;;;2.40;2.03;;;6.20;99.90;;;;;;5044858;28;21313;-78
2022/01/29 05:59:15;;;;;;;2.30;1.13;;;6.30;99.90;;;;;;5043756;28;20814;-79
2022/01/29 06:01:43;;;;;;;2.13;1.20;;;6.20;99.90;;;;;;5042858;28;20451;-78
2022/01/29 06:04:13;;;;;;;1.50;1.40;;;6.20;99.90;;;;;;5042357;28;20571;-79
2022/01/29 06:06:41;;;;;;;1.57;1.00;;;6.20;99.90;;;;;;5043336;28;20472;-77
2022/01/29 06:09:09;;;;;;;2.00;1.40;;;6.50;99.90;;;;;;5056113;28;20463;-78
2022/01/29 06:11:37;;;;;;;1.57;1.40;;;6.20;99.90;;;;;;5041526;28;20672;-78
2022/01/29 06:14:06;;;;;;;3.30;1.53;;;6.10;99.90;;;;;;5042085;28;20468;-79
2022/01/29 06:16:34;;;;;;;2.10;1.27;;;6.10;99.90;;;;;;5042138;28;20471;-79
2022/01/29 06:19:02;;;;;;;1.97;1.87;;;6.00;99.90;;;;;;5041526;28;20976;-79
2022/01/29 06:21:32;;;;;;;2.97;1.75;;;6.00;99.90;;;;;;5041606;28;20475;-78
2022/01/29 06:24:02;;;;;;;4.33;1.63;;;6.00;99.90;;;;;;5036636;28;20213;-78
2022/01/29 06:26:30;;;;;;;2.47;1.40;;;6.10;99.90;;;;;;5047567;28;20452;-79
2022/01/29 06:28:59;;;;;;;4.93;1.60;;;6.10;99.90;;;;;;5041518;28;20443;-79
2022/01/29 06:31:27;;;;;;;3.47;1.10;;;6.10;99.90;;;;;;5039700;28;20969;-79
2022/01/29 06:33:55;;;;;;;1.47;1.37;;;6.10;99.90;;;;;;5038395;28;20460;-79
2022/01/29 06:36:24;;;;;;;2.63;1.30;;;6.10;99.90;;;;;;5046038;28;21020;-79
2022/01/29 06:38:53;;;;;;;2.30;1.17;;;6.10;99.90;;;;;;5042818;28;21014;-77
2022/01/29 06:41:21;;;;;;;1.30;1.20;;;6.10;99.90;;;;;;5042231;28;20458;-79
2022/01/29 06:43:49;;;;;;;3.60;1.80;;;6.10;99.90;;;;;;5034449;28;21002;-78
2022/01/29 06:46:18;;;;;;;1.60;1.50;;;6.10;99.90;;;;;;5037474;28;20494;-79
2022/01/29 06:48:46;;;;;;;1.57;1.47;;;6.10;99.90;;;;;;5039561;28;20542;-78
2022/01/29 06:51:16;;;;;;;3.37;1.30;;;6.10;99.90;;;;;;5042691;28;20724;-79
2022/01/29 06:53:44;;;;;;;2.40;1.43;;;6.10;99.90;;;;;;5038101;28;20473;-79
2022/01/29 06:56:14;;;;;;;2.23;1.57;;;6.10;99.90;;;;;;5040140;28;21263;-78
2022/01/29 06:58:42;;;;;;;3.83;1.40;;;6.20;99.90;;;;;;5046618;28;20486;-79
2022/01/29 07:01:30;;;;;;;3.37;1.90;;;6.20;99.90;;;;;;5035313;28;21006;-78
2022/01/29 07:03:59;;;;;;;2.60;1.80;;;6.10;99.90;;;;;;5058614;28;20903;-75
2022/01/29 07:06:27;;;;;;;1.93;1.67;;;6.10;99.90;;;;;;5040840;28;20463;-78
2022/01/29 07:08:55;;;;;;;2.13;1.63;;;6.10;99.90;;;;;;5044533;28;20455;-78
2022/01/29 07:11:25;;;;;;;1.93;1.60;;;6.10;99.90;;;;;;5045266;28;20471;-78
2022/01/29 07:14:01;;;;;;;2.03;1.50;;;6.10;99.90;;;;;;5041870;28;20475;-79
2022/01/29 07:16:30;;;;;;;2.17;1.73;;;6.10;99.90;;;;;;5047068;28;20469;-80
2022/01/29 07:18:59;;;;;;;1.87;1.50;;;6.10;99.90;;;;;;5048355;28;20483;-80
2022/01/29 07:21:27;;;;;;;2.90;1.70;;;6.10;99.90;;;;;;5041950;28;20475;-79
2022/01/29 07:23:55;;;;;;;1.40;1.30;;;6.10;99.90;;;;;;5045850;28;20534;-79
2022/01/29 07:26:25;;;;;;;3.63;1.63;;;6.10;99.90;;;;;;5047061;28;20624;-78
2022/01/29 07:28:53;;;;;;;2.92;1.63;;;6.10;99.90;;;;;;5040990;28;20464;-79
2022/01/29 07:31:21;;;;;;;2.83;2.10;;;6.10;99.90;;;;;;5038390;28;20220;-78
2022/01/29 07:33:50;;;;;;;3.67;1.83;;;6.20;99.90;;;;;;5042526;28;20862;-77
2022/01/29 07:36:18;;;;;;;2.40;1.40;;;6.10;99.90;;;;;;5049457;28;20518;-79
2022/01/29 07:38:47;;;;;;;1.33;1.23;;;6.10;99.90;;;;;;5040455;28;20487;-80
2022/01/29 07:41:15;;;;;;;2.33;1.42;;;6.00;99.90;;;;;;5052443;28;20212;-79
2022/01/29 07:43:44;;;;;;;1.77;1.53;;;6.00;99.90;;;;;;5040686;28;20278;-78
2022/01/29 07:46:12;;;;;;;1.50;1.40;;;5.90;99.90;;;;;;5039088;28;20527;-79
2022/01/29 07:48:41;;;;;;;6.53;1.47;;;5.70;99.90;;;;;;5040082;28;20451;-77
2022/01/29 07:51:09;;;;;;;4.13;2.03;;;5.80;99.90;;;;;;5041556;28;20592;-79
2022/01/29 07:53:37;;;;;;;1.98;1.67;;;5.70;99.90;;;;;;5035116;28;20819;-77
2022/01/29 07:56:06;;;;;;;2.93;1.53;;;5.90;99.90;;;;;;5043642;28;20315;-79
2022/01/29 07:58:34;;;;;;;1.30;1.20;;;5.90;99.90;;;;;;5040788;28;20477;-78
2022/01/29 08:01:04;;;;;;;3.28;2.28;;;5.90;99.90;;;;;;5036583;28;20463;-79
2022/01/29 08:03:32;;;;;;;4.00;1.40;;;5.90;99.90;;;;;;5041170;28;20201;-79
2022/01/29 08:06:00;;;;;;;2.43;1.93;;;5.80;99.90;;;;;;5043357;28;21048;-79
2022/01/29 08:08:29;;;;;;;3.85;2.05;;;5.70;99.90;;;;;;5042129;28;20468;-78
2022/01/29 08:10:57;;;;;;;2.17;1.47;;;5.70;99.90;;;;;;5041568;28;20225;-77
2022/01/29 08:13:25;;;;;;;3.93;1.60;;;5.70;99.90;;;;;;5041986;28;20451;-80
2022/01/29 08:15:53;;;;;;;5.32;1.42;;;5.70;99.90;;;;;;5039895;28;20526;-79
2022/01/29 08:18:23;;;;;;;3.40;1.60;;;5.50;99.90;;;;;;5046663;28;20325;-79
2022/01/29 08:20:52;;;;;;;2.60;1.20;;;5.40;99.90;;;;;;5039133;28;20548;-80
2022/01/29 08:23:20;;;;;;;2.83;1.70;;;5.20;99.90;;;;;;5048104;28;20202;-80
2022/01/29 08:25:49;;;;;;;2.47;1.63;;;5.20;99.90;;;;;;5043433;28;20208;-80
2022/01/29 08:28:21;;;;;;;2.17;1.52;;;5.20;99.90;;;;;;5057995;28;20213;-82
2022/01/29 08:30:49;;;;;;;1.70;1.57;;;5.20;99.90;;;;;;5036808;28;20566;-80
2022/01/29 08:33:18;;;;;;;1.65;1.55;;;5.20;99.90;;;;;;5039988;28;20460;-80
2022/01/29 08:35:48;;;;;;;2.13;1.70;;;5.30;99.90;;;;;;5037708;28;20280;-80
2022/01/29 08:38:16;;;;;;;4.80;2.80;;;5.30;99.90;;;;;;5043307;28;20472;-80
2022/01/29 08:40:45;;;;;;;2.50;2.30;;;5.40;99.90;;;;;;5055109;28;20472;-80
2022/01/29 08:43:13;;;;;;;3.50;2.37;;;5.30;99.90;;;;;;5040839;28;20571;-80
2022/01/29 08:45:41;;;;;;;2.70;2.20;;;5.40;99.90;;;;;;5040470;28;20519;-79
2022/01/29 08:48:10;;;;;;;3.05;2.05;;;5.40;99.90;;;;;;5039594;28;20476;-81
2022/01/29 08:50:38;;;;;;;6.10;2.10;;;5.40;99.90;;;;;;5043865;28;20200;-81
2022/01/29 08:53:08;;;;;;;4.00;1.95;;;5.40;99.90;;;;;;5041167;28;20573;-80
2022/01/29 08:55:37;;;;;;;3.40;2.22;;;5.30;99.90;;;;;;5042275;28;20256;-81
2022/01/29 08:58:06;;;;;;;3.90;3.00;;;5.30;99.90;;;;;;5055349;28;20229;-80
2022/01/29 09:00:35;;;;;;;4.63;2.03;;;5.50;99.90;;;;;;5047500;28;20458;-81
2022/01/29 09:03:03;;;;;;;2.70;1.80;;;5.40;99.90;;;;;;5042235;28;20522;-81
2022/01/29 09:05:32;;;;;;;2.50;2.13;;;5.50;99.90;;;;;;5041879;28;20547;-81
2022/01/29 09:08:00;;;;;;;1.80;1.60;;;5.40;99.90;;;;;;5044221;28;20479;-80
2022/01/29 09:10:31;;;;;;;3.97;1.90;;;5.30;99.90;;;;;;5040494;28;20197;-81
2022/01/29 09:12:59;;;;;;;2.72;2.20;;;5.20;99.90;;;;;;5039729;28;20994;-80
2022/01/29 09:15:27;;;;;;;3.63;2.03;;;5.50;99.90;;;;;;5043806;28;20200;-78
2022/01/29 09:17:55;;;;;;;4.95;2.10;;;5.40;99.90;;;;;;5038176;28;20222;-79
2022/01/29 09:20:24;;;;;;;4.05;1.95;;;5.30;99.90;;;;;;5039564;28;20213;-79
2022/01/29 09:22:52;;;;;;;3.03;1.93;;;5.50;99.90;;;;;;5041310;28;20201;-82
2022/01/29 09:25:20;;;;;;;2.47;2.03;;;5.50;99.90;;;;;;5042616;28;21216;-80
2022/01/29 09:27:50;;;;;;;3.27;1.93;;;5.60;99.90;;;;;;5039360;28;20468;-81
2022/01/29 09:30:18;;;;;;;4.28;2.40;;;5.70;99.90;;;;;;5037848;28;20438;-80
2022/01/29 09:32:49;;;;;;;3.40;2.20;;;5.80;99.90;;;;;;5043540;28;20199;-80
2022/01/29 09:35:19;;;;;;;1.87;1.77;;;5.50;99.90;;;;;;5037397;28;20467;-80
2022/01/29 09:37:47;;;;;;;5.03;2.60;;;5.50;99.90;;;;;;5043220;28;20487;-80
2022/01/29 09:40:17;;;;;;;2.60;1.80;;;5.60;99.90;;;;;;5037928;28;20476;-79
2022/01/29 09:42:46;;;;;;;2.70;1.70;;;5.70;99.90;;;;;;5043317;28;20444;-81
2022/01/29 09:45:18;;;;;;;3.75;2.13;;;5.50;99.90;;;;;;5037443;28;20457;-81
2022/01/29 09:47:48;;;;;;;2.77;2.50;;;5.30;99.90;;;;;;5046256;28;20224;-83
2022/01/29 09:50:19;;;;;;;1.88;1.45;;;5.40;99.90;;;;;;5033893;28;20476;-81
2022/01/29 09:52:47;;;;;;;4.35;2.28;;;5.40;99.90;;;;;;5050471;28;20202;-81
2022/01/29 09:55:16;;;;;;;2.40;2.20;;;5.40;99.90;;;;;;5040498;28;20197;-79
2022/01/29 09:57:44;;;;;;;2.67;1.80;;;5.50;99.90;;;;;;5051137;28;20660;-80
2022/01/29 10:00:13;;;;;;;2.73;2.23;;;5.70;99.90;;;;;;5039952;28;20225;-81
2022/01/29 10:02:43;;;;;;;2.90;1.80;;;5.90;99.90;;;;;;5043132;28;20482;-81
2022/01/29 10:05:12;;;;;;;2.50;1.90;;;5.90;99.90;;;;;;5038785;28;20795;-81
2022/01/29 10:07:41;;;;;;;2.10;1.90;;;5.90;99.90;;;;;;5036367;28;21570;-80
2022/01/29 10:10:19;;;;;;;3.47;2.10;;;6.10;99.90;;;;;;5038321;28;20523;-80
2022/01/29 10:12:47;;;;;;;3.93;2.10;;;6.20;99.90;;;;;;5046244;28;20531;-81
2022/01/29 10:15:16;;;;;;;5.43;2.10;;;6.50;99.90;;;;;;5037505;28;20495;-81
2022/01/29 10:17:48;;;;;;;2.70;2.07;;;6.90;99.90;;;;;;5037483;28;20473;-81
2022/01/29 10:20:20;;;;;;;2.07;1.50;;;7.00;99.90;;;;;;5050091;28;21012;-81
2022/01/29 10:22:51;;;;;;;2.17;1.70;;;7.30;99.90;;;;;;5035990;28;20450;-80
2022/01/29 10:25:22;;;;;;;3.03;1.77;;;7.20;99.90;;;;;;5044759;28;20457;-80
2022/01/29 10:28:11;;;;;;;2.13;1.50;;;7.40;99.90;;;;;;5048672;28;20561;-80
2022/01/29 10:30:57;;;;;;;2.40;1.33;;;7.60;99.90;;;;;;5048220;28;20462;-79
2022/01/29 10:33:28;;;;;;;3.43;1.43;;;8.00;99.90;;;;;;5048308;28;20446;-79
2022/01/29 10:35:58;;;;;;;4.80;1.43;;;8.10;99.90;;;;;;5048951;28;20485;-79
2022/01/29 10:38:28;;;;;;;1.50;1.20;;;8.20;99.90;;;;;;5059255;28;20510;-79
2022/01/29 10:41:16;;;;;;;1.33;1.10;;;8.00;99.90;;;;;;5049834;28;20499;-79
2022/01/29 10:44:02;;;;;;;0.93;0.90;;;7.90;99.90;;;;;;5042729;28;20446;-79
2022/01/29 10:46:36;;;;;;;1.20;1.10;;;7.60;99.90;;;;;;5046421;28;20482;-81
2022/01/29 10:49:06;;;;;;;1.63;1.00;;;7.70;99.90;;;;;;5050870;28;20484;-79
2022/01/29 10:51:35;;;;;;;1.07;1.00;;;7.70;99.90;;;;;;5045095;28;20454;-80
2022/01/29 10:54:17;;;;;;;1.50;1.20;;;7.60;99.90;;;;;;5041380;28;20452;-79
2022/01/29 10:56:58;;;;;;;1.30;1.00;;;7.50;99.90;;;;;;5053034;28;20494;-79
2022/01/29 10:59:27;;;;;;;1.40;1.08;;;7.50;99.90;;;;;;5054497;28;21087;-81
2022/01/29 11:01:57;;;;;;;1.93;1.50;;;7.50;99.90;;;;;;5051183;28;20653;-80
2022/01/29 11:04:30;;;;;;;1.70;1.13;;;7.60;99.90;;;;;;5047510;28;20953;-81
2022/01/29 11:07:02;;;;;;;3.90;1.10;;;7.50;99.90;;;;;;5061426;28;20572;-80
2022/01/29 11:09:31;;;;;;;1.30;1.10;;;7.50;99.90;;;;;;5042580;28;20824;-80
2022/01/29 11:12:03;;;;;;;1.10;1.00;;;7.20;99.90;;;;;;5047865;28;20448;-83
2022/01/29 11:14:32;;;;;;;1.00;0.90;;;7.00;99.90;;;;;;5039878;28;20531;-80
2022/01/29 11:17:02;;;;;;;3.07;1.30;;;7.10;99.90;;;;;;5040313;28;20456;-81
2022/01/29 11:19:32;;;;;;;1.30;0.90;;;6.90;99.90;;;;;;5047160;28;20472;-81
2022/01/29 11:22:06;;;;;;;1.67;1.00;;;6.90;99.90;;;;;;5045423;28;20452;-84
2022/01/29 11:24:36;;;;;;;1.90;1.10;;;7.00;99.90;;;;;;5052436;28;20446;-83
2022/01/29 11:27:21;;;;;;;2.20;1.27;;;7.00;99.90;;;;;;5052142;28;20488;-84
2022/01/29 11:30:05;;;;;;;1.60;1.13;;;7.20;99.90;;;;;;5060814;28;20480;-81
2022/01/29 11:32:40;;;;;;;3.50;1.30;;;7.20;99.90;;;;;;5047400;28;20927;-81
2022/01/29 11:35:29;;;;;;;2.40;1.97;;;7.20;99.90;;;;;;5056396;28;20252;-83
2022/01/29 11:38:07;;;;;;;1.33;1.00;;;7.10;99.90;;;;;;5042380;28;20495;-79
2022/01/29 11:40:37;;;;;;;2.17;1.10;;;7.00;99.90;;;;;;5043723;28;20818;-79
2022/01/29 11:43:10;;;;;;;1.40;1.30;;;6.90;99.90;;;;;;5047408;28;20444;-80
2022/01/29 11:45:49;;;;;;;1.30;1.20;;;7.10;99.90;;;;;;5049590;28;20459;-80
2022/01/29 11:48:52;;;;;;;1.30;1.10;;;7.30;99.90;;;;;;5050719;28;20475;-79
2022/01/29 11:51:43;;;;;;;1.13;0.90;;;7.20;99.90;;;;;;5046294;28;20442;-80
2022/01/29 11:54:14;;;;;;;1.73;1.20;;;7.20;99.90;;;;;;5044039;28;20456;-80
2022/01/29 11:56:44;;;;;;;1.80;1.70;;;7.10;99.90;;;;;;5044308;28;20525;-80
2022/01/29 11:59:31;;;;;;;1.20;1.10;;;7.20;99.90;;;;;;5045407;28;20452;-81
2022/01/29 12:02:02;;;;;;;1.13;0.87;;;7.40;99.90;;;;;;5037482;28;20459;-82
2022/01/29 12:05:08;;;;;;;1.27;0.97;;;7.50;99.90;;;;;;5043776;28;20462;-81
2022/01/29 12:08:11;;;;;;;1.20;1.10;;;7.40;99.90;;;;;;4949122;28;20492;-84
2022/01/29 12:10:43;;;;;;;2.67;1.25;;;7.30;99.90;;;;;;5041590;28;20490;-80
2022/01/29 12:13:14;;;;;;;3.33;1.10;;;7.20;99.90;;;;;;5048732;28;20210;-78
2022/01/29 12:15:43;;;;;;;2.03;1.17;;;7.20;99.90;;;;;;5043168;28;20474;-78
2022/01/29 12:18:26;;;;;;;1.37;1.20;;;7.00;99.90;;;;;;5049996;28;20486;-78
2022/01/29 12:20:54;;;;;;;1.27;1.17;;;7.10;99.90;;;;;;5046958;28;20476;-76
2022/01/29 12:23:24;;;;;;;2.03;1.67;;;6.90;99.90;;;;;;5042081;28;20488;-79
2022/01/29 12:25:57;;;;;;;3.43;1.57;;;6.90;99.90;;;;;;5044820;28;20457;-78
2022/01/29 12:28:25;;;;;;;1.60;1.17;;;6.80;99.90;;;;;;5048268;28;20454;-78
2022/01/29 12:30:54;;;;;;;1.43;1.13;;;6.70;99.90;;;;;;5041617;28;20198;-78
2022/01/29 12:33:24;;;;;;;1.33;1.10;;;6.80;99.90;;;;;;5046556;28;20452;-78
2022/01/29 12:35:55;;;;;;;1.70;1.37;;;6.60;1.00;;;;;;5059621;28;20509;-78
2022/01/29 12:38:29;;;;;;;2.03;1.47;;;6.80;1.00;;;;;;5035496;28;20481;-78
2022/01/29 12:41:02;;;;;;;2.10;1.52;;;6.70;1.00;;;;;;5039929;28;20440;-78
2022/01/29 12:43:35;;;;;;;1.50;1.00;;;6.90;1.00;;;;;;5045409;28;20207;-76
2022/01/29 12:46:13;;;;;;;1.30;0.90;;;6.90;99.90;;;;;;5053448;28;20488;-78
2022/01/29 12:48:42;;;;;;;1.77;1.30;;;6.80;99.90;;;;;;5045289;28;20534;-79
2022/01/29 12:51:13;;;;;;;3.80;1.50;;;6.90;1.00;;;;;;5051861;28;20460;-78
2022/01/29 12:53:42;;;;;;;1.95;1.40;;;6.90;99.90;;;;;;5039801;28;20808;-82
2022/01/29 12:56:12;;;;;;;1.73;1.37;;;6.80;1.00;;;;;;5050260;28;20586;-83
2022/01/29 12:58:42;;;;;;;1.53;1.17;;;6.60;1.00;;;;;;5050775;28;20486;-83
2022/01/29 13:01:13;;;;;;;2.93;1.43;;;6.30;1.00;;;;;;5051208;28;20487;-84
2022/01/29 13:03:42;;;;;;;4.00;1.20;;;6.50;1.00;;;;;;5044103;28;20458;-84
2022/01/29 13:06:12;;;;;;;1.77;1.17;;;6.70;1.00;;;;;;5057659;28;20495;-83
2022/01/29 13:08:42;;;;;;;1.20;1.10;;;6.80;1.00;;;;;;5051243;28;20448;-82
2022/01/29 13:11:25;;;;;;;1.57;1.17;;;6.80;1.00;;;;;;5041109;28;20452;-83
2022/01/29 13:13:57;;;;;;;1.40;1.10;;;6.70;1.00;;;;;;5044683;28;20452;-82
2022/01/29 13:16:31;;;;;;;1.53;1.43;;;6.70;1.00;;;;;;5041840;28;20509;-82
2022/01/29 13:19:01;;;;;;;2.47;1.10;;;6.50;1.00;;;;;;5067219;28;20483;-79
2022/01/29 13:21:32;;;;;;;2.77;1.30;;;6.50;1.00;;;;;;5049204;28;20489;-81
2022/01/29 13:24:32;;;;;;;1.80;0.90;;;6.70;1.00;;;;;;5044767;28;20892;-80